Time;durP1;ratioP1;P1;durP2;ratioP2;P2;SDS_P1;SDS_P2;PMS_P1;PMS_P2;Temp;Humidity;BMP_temperature;BMP_pressure;BME280_temperature;BME280_humidity;BME280_pressure;Samples;Min_cycle;Max_cycle;Signal;HPM_P1;HPM_P2
2024/01/13 00:00:35;;;;;;;23.55;11.73;;;0.70;99.90;;;-0.22;100.00;102447.47;4134938;28;20030;-70
2024/01/13 00:02:36;;;;;;;23.63;11.88;;;0.70;99.90;;;-0.20;100.00;102450.84;4136155;28;20030;-70
2024/01/13 00:04:37;;;;;;;32.78;13.60;;;0.70;99.90;;;-0.20;100.00;102448.25;4135792;28;20029;-70
2024/01/13 00:06:38;;;;;;;24.52;11.52;;;0.70;99.90;;;-0.23;100.00;102445.75;4134902;28;20025;-70
2024/01/13 00:08:39;;;;;;;23.45;12.07;;;0.60;99.90;;;-0.22;100.00;102442.28;4134898;28;20045;-71
2024/01/13 00:10:39;;;;;;;30.77;13.02;;;0.70;99.90;;;-0.14;100.00;102439.44;4136081;28;20026;-70
2024/01/13 00:12:40;;;;;;;28.95;13.23;;;0.60;99.90;;;-0.20;100.00;102432.69;4135779;28;20465;-71
2024/01/13 00:14:41;;;;;;;23.63;12.60;;;0.70;99.90;;;-0.19;100.00;102436.16;4136137;28;20034;-70
2024/01/13 00:16:42;;;;;;;27.05;12.80;;;0.60;99.90;;;-0.26;100.00;102427.69;4135869;28;20030;-70
2024/01/13 00:18:43;;;;;;;25.65;11.82;;;0.60;99.90;;;-0.27;100.00;102420.81;4134421;28;20038;-70
2024/01/13 00:20:44;;;;;;;25.83;12.52;;;0.60;99.90;;;-0.34;100.00;102421.91;4134499;28;20027;-70
2024/01/13 00:22:47;;;;;;;29.77;12.48;;;0.50;99.90;;;-0.35;100.00;102415.00;4135588;28;20032;-70
2024/01/13 00:24:48;;;;;;;26.23;11.57;;;0.50;99.90;;;-0.39;100.00;102415.16;4134831;28;20046;-70
2024/01/13 00:26:49;;;;;;;27.50;13.23;;;0.40;99.90;;;-0.43;100.00;102400.56;4135945;28;20034;-71
2024/01/13 00:28:49;;;;;;;28.45;13.32;;;0.50;99.90;;;-0.48;100.00;102403.31;4135965;28;20026;-70
2024/01/13 00:30:50;;;;;;;28.65;14.50;;;0.40;99.90;;;-0.48;100.00;102412.84;4134759;28;20042;-70
2024/01/13 00:32:51;;;;;;;30.40;14.50;;;0.40;99.90;;;-0.47;100.00;102411.91;4130738;28;20038;-71
2024/01/13 00:34:52;;;;;;;29.33;12.23;;;0.30;99.90;;;-0.53;100.00;102407.78;4129962;28;20030;-70
2024/01/13 00:36:53;;;;;;;29.83;13.50;;;0.30;99.90;;;-0.54;100.00;102411.28;4134299;28;20089;-71
2024/01/13 00:38:54;;;;;;;28.80;14.15;;;0.30;99.90;;;-0.65;100.00;102389.97;4135721;28;20027;-70
2024/01/13 00:40:54;;;;;;;32.35;15.52;;;0.20;99.90;;;-0.57;100.00;102409.59;4135887;28;20034;-70
2024/01/13 00:42:55;;;;;;;28.92;13.43;;;0.30;99.90;;;-0.58;100.00;102415.69;4134673;28;20029;-70
2024/01/13 00:44:56;;;;;;;38.67;14.82;;;0.30;99.90;;;-0.58;100.00;102412.25;4136045;28;20030;-70
2024/01/13 00:46:57;;;;;;;29.75;15.68;;;0.30;99.90;;;-0.63;100.00;102416.72;4134657;28;20022;-70
2024/01/13 00:48:58;;;;;;;31.65;14.30;;;0.20;99.90;;;-0.68;100.00;102411.66;4135603;28;20034;-71
2024/01/13 00:51:00;;;;;;;31.98;16.10;;;0.20;99.90;;;-0.65;100.00;102410.72;4135869;28;20038;-70
2024/01/13 00:53:01;;;;;;;31.73;14.70;;;0.20;99.90;;;-0.70;100.00;102410.00;4135743;28;20489;-70
2024/01/13 00:55:02;;;;;;;30.35;13.63;;;0.20;99.90;;;-0.77;100.00;102405.88;4167273;28;20025;-70
2024/01/13 00:57:04;;;;;;;33.67;14.48;;;0.10;99.90;;;-0.82;100.00;102400.00;4134650;28;20026;-70
2024/01/13 00:59:04;;;;;;;30.60;13.45;;;0.10;99.90;;;-0.82;100.00;102400.00;4135689;28;20030;-70
2024/01/13 01:01:05;;;;;;;33.42;14.02;;;0.10;99.90;;;-0.81;100.00;102393.94;4135763;28;20029;-70
2024/01/13 01:03:06;;;;;;;32.00;13.13;;;0.10;99.90;;;-0.84;100.00;102399.19;4135390;28;20034;-71
2024/01/13 01:05:07;;;;;;;41.60;15.25;;;0.00;99.90;;;-0.80;100.00;102401.63;4135918;28;20015;-70
2024/01/13 01:07:08;;;;;;;34.58;15.00;;;0.00;99.90;;;-0.75;100.00;102393.75;4137010;28;20082;-70
2024/01/13 01:09:09;;;;;;;35.70;15.43;;;0.10;99.90;;;-0.66;100.00;102403.84;4137359;28;20030;-71
2024/01/13 01:11:11;;;;;;;36.42;15.95;;;0.10;99.90;;;-0.72;100.00;102398.84;4137213;28;20035;-71
2024/01/13 01:13:12;;;;;;;38.80;15.52;;;0.10;99.90;;;-0.74;100.00;102390.25;4137559;28;20034;-70
2024/01/13 01:15:13;;;;;;;34.30;16.92;;;0.10;99.90;;;-0.77;100.00;102393.78;4138821;28;20041;-70
2024/01/13 01:17:13;;;;;;;32.30;14.77;;;0.10;99.90;;;-0.77;100.00;102391.19;4137366;28;20114;-70
2024/01/13 01:19:14;;;;;;;31.08;13.52;;;0.10;99.90;;;-0.81;100.00;102389.59;4138119;28;20031;-70
2024/01/13 01:21:16;;;;;;;32.70;15.95;;;0.10;99.90;;;-0.80;100.00;102382.66;4138783;28;20389;-71
2024/01/13 01:23:17;;;;;;;31.35;15.57;;;0.10;99.90;;;-0.80;100.00;102380.06;4138652;28;20486;-70
2024/01/13 01:25:17;;;;;;;31.83;15.35;;;0.10;99.90;;;-0.82;100.00;102384.44;4138582;28;20033;-70
2024/01/13 01:27:18;;;;;;;34.97;16.42;;;0.10;99.90;;;-0.77;100.00;102382.56;4137367;28;20204;-70
2024/01/13 01:29:19;;;;;;;33.05;16.48;;;0.10;99.90;;;-0.78;100.00;102379.16;4138488;28;20038;-70
2024/01/13 01:31:20;;;;;;;37.10;17.60;;;0.10;99.90;;;-0.69;100.00;102373.66;4137161;28;20390;-70
2024/01/13 01:33:21;;;;;;;36.65;17.45;;;0.10;99.90;;;-0.57;100.00;102373.31;4138164;28;20034;-70
2024/01/13 01:35:22;;;;;;;43.33;18.63;;;0.30;99.90;;;-0.47;100.00;102379.06;4138421;28;20033;-71
2024/01/13 01:37:23;;;;;;;37.72;16.77;;;0.30;99.90;;;-0.41;100.00;102378.91;4138389;28;20038;-70
2024/01/13 01:39:24;;;;;;;37.45;19.52;;;0.40;99.90;;;-0.24;100.00;102383.59;4138224;28;20049;-71
2024/01/13 01:41:25;;;;;;;39.97;18.98;;;0.50;99.90;;;-0.09;100.00;102386.53;4138248;28;20025;-70
2024/01/13 01:43:26;;;;;;;46.40;19.55;;;0.70;99.90;;;-0.05;100.00;102382.94;4138163;28;20035;-71
2024/01/13 01:45:27;;;;;;;41.30;17.30;;;0.80;99.90;;;0.06;100.00;102384.38;4138263;28;20026;-70
2024/01/13 01:47:31;;;;;;;41.05;17.85;;;0.80;99.90;;;0.11;100.00;102385.91;4137110;28;20038;-70
2024/01/13 01:49:32;;;;;;;36.22;16.40;;;0.90;99.90;;;0.18;100.00;102383.97;4136792;28;20049;-71
2024/01/13 01:51:33;;;;;;;30.83;16.02;;;1.00;99.90;;;0.21;100.00;102379.50;4137921;28;20039;-70
2024/01/13 01:53:35;;;;;;;36.95;16.63;;;1.10;99.90;;;0.22;100.00;102373.44;4138218;28;20030;-71
2024/01/13 01:55:37;;;;;;;37.28;18.00;;;1.10;99.90;;;0.22;100.00;102369.97;4136840;28;20030;-70
2024/01/13 01:57:38;;;;;;;43.25;19.25;;;1.10;99.90;;;0.29;100.00;102368.91;4136905;28;20437;-71
2024/01/13 01:59:40;;;;;;;38.17;18.40;;;1.10;99.90;;;0.26;100.00;102366.41;4136545;28;20027;-71
2024/01/13 02:01:41;;;;;;;37.45;17.55;;;1.20;99.90;;;0.23;100.00;102356.13;4137989;28;20030;-71
2024/01/13 02:03:42;;;;;;;39.72;17.20;;;1.20;99.90;;;0.27;100.00;102363.75;4138031;28;20023;-70
2024/01/13 02:05:43;;;;;;;31.55;15.75;;;1.20;99.90;;;0.23;100.00;102359.56;4137880;28;20037;-70
2024/01/13 02:07:44;;;;;;;38.50;16.58;;;1.20;99.90;;;0.30;100.00;102357.63;4137948;28;20026;-70
2024/01/13 02:09:46;;;;;;;39.80;16.55;;;1.10;99.90;;;0.33;100.00;102352.34;4136569;28;20512;-71
2024/01/13 02:11:47;;;;;;;37.92;17.48;;;1.20;99.90;;;0.33;100.00;102352.34;4137885;28;20053;-71
2024/01/13 02:13:49;;;;;;;37.88;18.33;;;1.20;99.90;;;0.34;100.00;102354.00;4136746;28;20034;-70
2024/01/13 02:15:50;;;;;;;47.95;17.00;;;1.20;99.90;;;0.36;100.00;102354.81;4137716;28;20127;-71
2024/01/13 02:17:50;;;;;;;34.95;16.67;;;1.30;99.90;;;0.36;100.00;102357.41;4137504;28;20065;-71
2024/01/13 02:19:51;;;;;;;33.90;17.05;;;1.30;99.90;;;0.39;100.00;102352.09;4137451;28;20022;-70
2024/01/13 02:21:52;;;;;;;35.08;17.05;;;1.30;99.90;;;0.41;100.00;102347.72;4137702;28;20030;-71
2024/01/13 02:23:53;;;;;;;36.88;16.92;;;1.30;99.90;;;0.34;100.00;102338.44;4137411;28;20067;-71
2024/01/13 02:25:54;;;;;;;37.65;18.02;;;1.30;99.90;;;0.44;100.00;102342.44;4137749;28;20026;-70
2024/01/13 02:27:55;;;;;;;31.30;16.60;;;1.30;99.90;;;0.40;100.00;102341.69;4137661;28;20022;-71
2024/01/13 02:29:56;;;;;;;35.78;16.35;;;1.30;99.90;;;0.35;100.00;102335.81;4137585;28;20036;-70
2024/01/13 02:31:56;;;;;;;32.95;16.67;;;1.30;99.90;;;0.40;100.00;102339.09;4136441;28;20063;-70
2024/01/13 02:33:57;;;;;;;34.80;16.50;;;1.30;99.90;;;0.40;100.00;102328.69;4137502;28;20030;-71
2024/01/13 02:35:58;;;;;;;32.33;16.55;;;1.30;99.90;;;0.38;100.00;102329.66;4137341;28;20133;-70
2024/01/13 02:37:59;;;;;;;36.20;16.13;;;1.30;99.90;;;0.40;100.00;102333.88;4137451;28;20034;-70
2024/01/13 02:40:00;;;;;;;33.78;16.30;;;1.30;99.90;;;0.35;100.00;102322.81;4137263;28;20037;-71
2024/01/13 02:42:01;;;;;;;37.20;17.52;;;1.20;99.90;;;0.28;100.00;102312.69;4137258;28;20018;-71
2024/01/13 02:44:01;;;;;;;33.60;16.60;;;1.20;99.90;;;0.28;100.00;102315.28;4136219;28;20022;-70
2024/01/13 02:46:03;;;;;;;36.42;16.48;;;1.20;99.90;;;0.37;100.00;102317.56;4136103;28;20038;-71
2024/01/13 02:48:25;;;;;;;31.13;15.82;;;1.20;99.90;;;0.33;100.00;102314.22;4137056;28;20091;-71
2024/01/13 02:50:26;;;;;;;36.13;16.55;;;1.20;99.90;;;0.34;100.00;102317.66;4135907;28;20035;-71
2024/01/13 02:52:27;;;;;;;35.92;16.48;;;1.20;99.90;;;0.37;100.00;102326.22;4137400;28;20030;-71
2024/01/13 02:54:28;;;;;;;37.30;16.58;;;1.20;99.90;;;0.36;100.00;102321.91;4137244;28;20461;-70
2024/01/13 02:56:29;;;;;;;31.42;16.08;;;1.30;99.90;;;0.39;100.00;102327.00;4137003;28;20038;-71
2024/01/13 02:58:30;;;;;;;37.47;17.30;;;1.30;99.90;;;0.44;100.00;102338.09;4137163;28;20037;-71
2024/01/13 03:00:30;;;;;;;38.08;16.75;;;1.30;99.90;;;0.47;100.00;102344.91;4137124;28;20019;-71
2024/01/13 03:02:31;;;;;;;35.45;16.52;;;1.30;99.90;;;0.47;100.00;102339.72;4135706;28;20022;-71
2024/01/13 03:04:32;;;;;;;32.05;17.30;;;1.40;99.90;;;0.52;100.00;102332.63;4136679;28;20533;-71
2024/01/13 03:06:33;;;;;;;38.33;16.10;;;1.40;99.90;;;0.51;100.00;102338.69;4135868;28;20030;-71
2024/01/13 03:08:34;;;;;;;33.45;16.10;;;1.40;99.90;;;0.54;100.00;102342.03;4138138;28;20486;-70
2024/01/13 03:10:35;;;;;;;31.73;16.98;;;1.40;99.90;;;0.49;100.00;102340.50;4136997;28;20030;-71
2024/01/13 03:12:36;;;;;;;31.00;16.60;;;1.40;99.90;;;0.49;100.00;102349.16;4135464;28;20544;-70
2024/01/13 03:14:37;;;;;;;29.42;15.57;;;1.40;99.90;;;0.46;100.00;102340.63;4137061;28;20038;-70
2024/01/13 03:16:38;;;;;;;33.30;17.90;;;1.40;99.90;;;0.41;100.00;102329.56;4137033;28;20022;-69
2024/01/13 03:18:40;;;;;;;28.88;15.95;;;1.30;99.90;;;0.41;100.00;102329.56;4135333;28;20038;-70
2024/01/13 03:20:40;;;;;;;33.97;15.90;;;1.40;99.90;;;0.39;100.00;102329.59;4136599;28;20033;-69
2024/01/13 03:22:41;;;;;;;33.53;16.80;;;1.40;99.90;;;0.36;100.00;102326.28;4136695;28;20034;-70
2024/01/13 03:24:42;;;;;;;27.88;15.63;;;1.30;99.90;;;0.35;100.00;102329.75;4136658;28;20026;-70
2024/01/13 03:26:43;;;;;;;33.55;15.50;;;1.30;99.90;;;0.36;100.00;102327.09;4136709;28;20429;-70
2024/01/13 03:28:44;;;;;;;31.35;16.23;;;1.30;99.90;;;0.40;100.00;102327.84;4136012;28;20030;-70
2024/01/13 03:30:45;;;;;;;39.17;17.20;;;1.30;99.90;;;0.42;100.00;102320.84;4136729;28;20026;-70
2024/01/13 03:32:45;;;;;;;32.45;16.42;;;1.30;99.90;;;0.43;100.00;102313.03;4135409;28;20022;-69
2024/01/13 03:34:46;;;;;;;34.72;16.13;;;1.40;99.90;;;0.49;100.00;102322.34;4135170;28;20034;-70
2024/01/13 03:36:47;;;;;;;29.38;15.40;;;1.40;99.90;;;0.49;100.00;102311.94;4135226;28;20540;-69
2024/01/13 03:38:48;;;;;;;31.45;17.25;;;1.40;99.90;;;0.48;100.00;102315.44;4136444;28;20093;-70
2024/01/13 03:40:49;;;;;;;27.38;16.15;;;1.40;99.90;;;0.49;100.00;102312.81;4135398;28;20026;-70
2024/01/13 03:42:49;;;;;;;32.65;15.60;;;1.40;99.90;;;0.49;100.00;102310.22;4137859;28;20533;-70
2024/01/13 03:44:50;;;;;;;31.98;16.17;;;1.40;99.90;;;0.46;100.00;102301.69;4136400;28;20505;-70
2024/01/13 03:46:51;;;;;;;33.53;14.77;;;1.40;99.90;;;0.45;100.00;102289.59;4136336;28;20449;-70
2024/01/13 03:48:52;;;;;;;30.23;16.40;;;1.40;99.90;;;0.41;100.00;102299.25;4136229;28;20027;-70
2024/01/13 03:50:53;;;;;;;35.58;15.68;;;1.40;99.90;;;0.41;100.00;102282.81;4136692;28;20034;-69
2024/01/13 03:52:54;;;;;;;34.72;16.40;;;1.30;99.90;;;0.39;100.00;102292.41;4136151;28;20382;-70
2024/01/13 03:54:55;;;;;;;33.65;15.70;;;1.30;99.90;;;0.39;100.00;102292.41;4135122;28;20406;-70
2024/01/13 03:56:56;;;;;;;32.30;14.52;;;1.30;99.90;;;0.36;100.00;102287.34;4136367;28;20026;-70
2024/01/13 03:58:56;;;;;;;36.00;16.67;;;1.30;99.90;;;0.37;100.00;102291.63;4136247;28;20035;-70
2024/01/13 04:00:57;;;;;;;30.45;16.90;;;1.30;99.90;;;0.35;100.00;102283.03;4136219;28;20030;-70
2024/01/13 04:02:58;;;;;;;34.45;16.52;;;1.30;99.90;;;0.35;100.00;102277.84;4135830;28;20080;-70
2024/01/13 04:04:59;;;;;;;30.20;16.80;;;1.30;99.90;;;0.36;100.00;102274.38;4136317;28;20038;-69
2024/01/13 04:07:00;;;;;;;32.40;17.13;;;1.30;99.90;;;0.33;100.00;102271.88;4136248;28;20026;-70
2024/01/13 04:09:01;;;;;;;31.35;15.50;;;1.20;99.90;;;0.36;100.00;102274.38;4136143;28;20030;-70
2024/01/13 04:11:09;;;;;;;35.70;17.83;;;1.30;99.90;;;0.27;100.00;102267.72;4135011;28;20034;-70
2024/01/13 04:13:14;;;;;;;33.45;16.17;;;1.30;99.90;;;0.23;100.00;102260.97;4134943;28;20133;-69
2024/01/13 04:15:15;;;;;;;28.80;15.68;;;1.30;99.90;;;0.29;100.00;102268.53;4135099;28;20029;-70
2024/01/13 04:17:17;;;;;;;30.70;16.13;;;1.20;99.90;;;0.29;100.00;102258.16;4136086;28;20026;-70
2024/01/13 04:19:17;;;;;;;33.95;17.38;;;1.20;99.90;;;0.27;100.00;102244.38;4133898;28;20074;-70
2024/01/13 04:21:18;;;;;;;30.40;15.98;;;1.20;99.90;;;0.31;100.00;102258.09;4134952;28;20034;-70
2024/01/13 04:23:19;;;;;;;38.33;17.58;;;1.20;99.90;;;0.30;100.00;102249.44;4134754;28;20026;-70
2024/01/13 04:25:20;;;;;;;30.02;15.73;;;1.30;99.90;;;0.32;100.00;102236.44;4136118;28;20022;-70
2024/01/13 04:27:21;;;;;;;31.90;15.82;;;1.20;99.90;;;0.28;100.00;102240.03;4135933;28;20504;-70
2024/01/13 04:29:22;;;;;;;32.35;17.17;;;1.20;99.90;;;0.24;100.00;102248.84;4134921;28;20037;-70
2024/01/13 04:31:22;;;;;;;33.40;16.38;;;1.20;99.90;;;0.26;100.00;102247.88;4136085;28;20026;-70
2024/01/13 04:33:23;;;;;;;35.83;17.67;;;1.20;99.90;;;0.20;100.00;102242.91;4134603;28;20038;-70
2024/01/13 04:35:24;;;;;;;34.78;17.98;;;1.20;99.90;;;0.26;100.00;102247.03;4135811;28;20482;-70
2024/01/13 04:37:25;;;;;;;33.60;17.40;;;1.20;99.90;;;0.20;100.00;102242.06;4136002;28;20031;-70
2024/01/13 04:39:26;;;;;;;32.25;16.48;;;1.20;99.90;;;0.23;100.00;102252.31;4134739;28;20018;-70
2024/01/13 04:41:27;;;;;;;37.00;17.23;;;1.20;99.90;;;0.23;100.00;102241.94;4138919;28;20057;-69
2024/01/13 04:43:28;;;;;;;32.05;16.00;;;1.20;99.90;;;0.22;100.00;102251.47;4139049;28;20025;-70
2024/01/13 04:45:29;;;;;;;37.33;17.88;;;1.20;99.90;;;0.22;100.00;102248.88;4139316;28;20125;-70
2024/01/13 04:47:30;;;;;;;31.73;16.65;;;1.20;99.90;;;0.24;100.00;102256.63;4139324;28;20018;-69
2024/01/13 04:49:31;;;;;;;31.20;16.42;;;1.20;99.90;;;0.19;100.00;102255.91;4121551;28;20061;-70
2024/01/13 04:51:32;;;;;;;34.95;17.25;;;1.20;99.90;;;0.20;100.00;102252.44;4153855;28;20026;-70
2024/01/13 04:53:32;;;;;;;37.45;17.60;;;1.10;99.90;;;0.21;100.00;102254.13;4130079;28;20049;-70
2024/01/13 04:55:33;;;;;;;36.50;17.92;;;1.10;99.90;;;0.17;100.00;102257.72;4139111;28;20033;-70
2024/01/13 04:57:34;;;;;;;39.72;16.42;;;1.10;99.90;;;0.16;100.00;102245.66;4139002;28;20034;-69
2024/01/13 04:59:35;;;;;;;34.35;16.77;;;1.20;99.90;;;0.17;100.00;102244.75;4137703;28;20026;-69
2024/01/13 05:01:36;;;;;;;35.92;17.75;;;1.10;99.90;;;0.20;100.00;102240.31;4137436;28;20034;-70
2024/01/13 05:03:36;;;;;;;34.10;16.98;;;1.10;99.90;;;0.23;100.00;102241.94;4137362;28;20517;-69
2024/01/13 05:05:37;;;;;;;34.42;16.08;;;1.20;99.90;;;0.16;100.00;102238.72;4137746;28;20026;-69
2024/01/13 05:07:38;;;;;;;34.38;17.73;;;1.20;99.90;;;0.16;100.00;102248.25;4148199;28;20029;-69
2024/01/13 05:09:40;;;;;;;33.97;16.38;;;1.10;99.90;;;0.13;100.00;102245.75;4137878;28;20046;-69
2024/01/13 05:11:40;;;;;;;39.40;16.20;;;1.10;99.90;;;0.07;100.00;102227.81;4137472;28;20049;-70
2024/01/13 05:13:41;;;;;;;34.58;16.50;;;1.10;99.90;;;0.06;100.00;102234.72;4138798;28;20022;-70
2024/01/13 05:15:42;;;;;;;31.95;16.75;;;1.10;99.90;;;0.14;100.00;102234.47;4137502;28;20031;-69
2024/01/13 05:17:43;;;;;;;32.78;16.73;;;1.10;99.90;;;0.15;100.00;102242.19;4137287;28;20023;-69
2024/01/13 05:19:44;;;;;;;36.70;16.92;;;1.10;99.90;;;0.17;100.00;102244.75;4138623;28;20101;-69
2024/01/13 05:21:45;;;;;;;36.58;16.52;;;1.10;99.90;;;0.19;100.00;102245.53;4137607;28;20018;-69
2024/01/13 05:23:46;;;;;;;29.15;15.90;;;1.10;99.90;;;0.18;100.00;102228.28;4138378;28;20034;-69
2024/01/13 05:25:46;;;;;;;33.90;16.52;;;1.10;99.90;;;0.22;100.00;102237.66;4138478;28;20564;-69
2024/01/13 05:27:47;;;;;;;35.83;17.10;;;1.10;99.90;;;0.18;100.00;102238.69;4137323;28;20501;-69
2024/01/13 05:29:48;;;;;;;38.20;17.58;;;1.10;99.90;;;0.17;100.00;102242.16;4138557;28;20037;-69
2024/01/13 05:31:49;;;;;;;34.08;16.27;;;1.10;99.90;;;0.11;100.00;102232.84;4137410;28;20034;-69
2024/01/13 05:33:50;;;;;;;34.90;16.10;;;1.10;99.90;;;0.11;100.00;102238.03;4138009;28;20049;-69
2024/01/13 05:35:51;;;;;;;35.25;16.75;;;1.10;99.90;;;0.09;100.00;102226.03;4138446;28;20030;-69
2024/01/13 05:37:52;;;;;;;34.75;16.23;;;1.10;99.90;;;0.07;100.00;102226.06;4137334;28;20022;-69
2024/01/13 05:39:52;;;;;;;38.08;17.02;;;1.00;99.90;;;0.10;100.00;102219.91;4138271;28;20552;-69
2024/01/13 05:41:53;;;;;;;38.35;17.38;;;1.00;99.90;;;0.08;100.00;102214.78;4136995;28;20052;-69
2024/01/13 05:43:54;;;;;;;34.35;17.40;;;1.00;99.90;;;0.12;100.00;102221.53;4138245;28;20050;-69
2024/01/13 05:45:55;;;;;;;31.42;15.63;;;1.00;99.90;;;0.10;100.00;102219.91;4138310;28;20026;-69
2024/01/13 05:47:56;;;;;;;34.50;16.63;;;1.00;99.90;;;0.11;100.00;102214.69;4138008;28;20513;-69
2024/01/13 05:49:57;;;;;;;34.97;16.55;;;1.00;99.90;;;0.11;100.00;102201.72;4136865;28;20022;-69
2024/01/13 05:51:57;;;;;;;32.80;16.55;;;1.10;99.90;;;0.15;100.00;102207.66;4137628;28;20034;-69
2024/01/13 05:53:58;;;;;;;31.70;16.02;;;1.10;99.90;;;0.14;100.00;102206.78;4138159;28;20505;-69
2024/01/13 05:55:59;;;;;;;39.95;16.85;;;1.10;99.90;;;0.12;100.00;102194.78;4138101;28;20501;-69
2024/01/13 05:58:00;;;;;;;34.83;16.15;;;1.10;99.90;;;0.12;100.00;102194.78;4137993;28;20393;-70
2024/01/13 06:00:01;;;;;;;33.05;15.88;;;1.10;99.90;;;0.10;100.00;102196.56;4136794;28;20030;-69
2024/01/13 06:02:02;;;;;;;37.15;17.60;;;1.10;99.90;;;0.02;100.00;102186.47;4137961;28;20031;-69
2024/01/13 06:04:03;;;;;;;33.65;16.85;;;1.00;99.90;;;0.00;100.00;102183.91;4136450;28;20034;-69
2024/01/13 06:06:09;;;;;;;39.70;17.08;;;1.00;99.90;;;0.00;100.00;102188.28;4137911;28;20023;-69
2024/01/13 06:08:10;;;;;;;36.53;16.98;;;1.00;99.90;;;-0.03;100.00;102189.22;4136835;28;20042;-70
2024/01/13 06:10:11;;;;;;;41.03;18.83;;;0.90;99.90;;;-0.09;100.00;102189.41;4137885;28;20026;-70
2024/01/13 06:12:13;;;;;;;39.85;17.80;;;0.90;99.90;;;-0.07;100.00;102195.41;4137677;28;20050;-69
2024/01/13 06:14:14;;;;;;;35.88;17.58;;;0.90;99.90;;;-0.04;100.00;102194.47;4136630;28;20026;-69
2024/01/13 06:16:16;;;;;;;42.15;18.52;;;0.90;99.90;;;-0.03;100.00;102191.81;4136883;28;20076;-69
2024/01/13 06:18:16;;;;;;;37.83;17.50;;;0.90;99.90;;;0.02;100.00;102185.63;4137512;28;20091;-69
2024/01/13 06:20:17;;;;;;;36.70;16.08;;;0.90;99.90;;;-0.03;100.00;102189.22;4137882;28;20023;-69
2024/01/13 06:22:18;;;;;;;38.42;15.77;;;0.90;99.90;;;-0.04;100.00;102195.31;4137716;28;20065;-69
2024/01/13 06:24:19;;;;;;;35.03;16.67;;;0.90;99.90;;;-0.08;100.00;102185.94;4137664;28;20026;-69
2024/01/13 06:26:20;;;;;;;33.42;16.05;;;0.90;99.90;;;-0.13;100.00;102185.25;4137867;28;20033;-69
2024/01/13 06:28:21;;;;;;;37.63;17.15;;;0.90;99.90;;;-0.09;100.00;102186.81;4136531;28;20041;-69
2024/01/13 06:30:22;;;;;;;36.13;17.75;;;0.90;99.90;;;-0.07;100.00;102189.38;4137520;28;20022;-69
2024/01/13 06:32:23;;;;;;;39.08;16.98;;;0.90;99.90;;;-0.09;100.00;102183.41;4137616;28;20049;-69
2024/01/13 06:34:24;;;;;;;39.67;18.13;;;0.90;99.90;;;-0.12;100.00;102186.94;4137268;28;20509;-69
2024/01/13 06:36:25;;;;;;;40.67;17.20;;;0.90;99.90;;;-0.09;100.00;102180.81;4137395;28;20026;-69
2024/01/13 06:38:26;;;;;;;35.70;16.65;;;0.90;99.90;;;-0.10;100.00;102182.56;4137343;28;20085;-69
2024/01/13 06:40:27;;;;;;;39.50;17.73;;;0.80;99.90;;;-0.14;100.00;102170.59;4136186;28;20486;-69
2024/01/13 06:42:28;;;;;;;35.67;17.10;;;0.90;99.90;;;-0.12;100.00;102179.16;4136097;28;20116;-69
2024/01/13 06:44:29;;;;;;;39.85;17.95;;;0.90;99.90;;;-0.09;100.00;102178.22;4136080;28;20022;-69
2024/01/13 06:46:29;;;;;;;41.67;18.58;;;0.80;99.90;;;-0.09;100.00;102173.03;4137288;28;20057;-69
2024/01/13 06:48:31;;;;;;;36.25;18.38;;;0.90;99.90;;;-0.15;100.00;102163.69;4137041;28;20054;-69
2024/01/13 06:50:32;;;;;;;42.75;18.50;;;0.80;99.90;;;-0.11;100.00;102175.66;4136007;28;20036;-69
2024/01/13 06:52:32;;;;;;;43.63;17.73;;;0.80;99.90;;;-0.09;100.00;102168.66;4137088;28;20026;-69
2024/01/13 06:54:33;;;;;;;40.15;18.33;;;0.80;99.90;;;-0.06;100.00;102171.16;4137200;28;20033;-69
2024/01/13 06:56:36;;;;;;;42.22;18.20;;;0.90;99.90;;;-0.06;100.00;102168.56;4137008;28;20054;-69
2024/01/13 06:58:37;;;;;;;37.45;16.75;;;0.90;99.90;;;-0.03;100.00;102163.28;4119990;28;20033;-69
2024/01/13 07:00:39;;;;;;;41.33;19.33;;;0.90;99.90;;;-0.04;100.00;102168.53;4135125;28;20027;-69
2024/01/13 07:02:40;;;;;;;39.47;18.67;;;0.90;99.90;;;-0.10;100.00;102172.19;4136723;28;20029;-69
2024/01/13 07:04:43;;;;;;;42.03;17.02;;;0.90;99.90;;;-0.04;100.00;102166.78;4134736;28;20093;-69
2024/01/13 07:06:44;;;;;;;38.45;18.08;;;0.90;99.90;;;-0.01;100.00;102166.69;4137057;28;20026;-69
2024/01/13 07:08:45;;;;;;;40.40;17.02;;;0.90;99.90;;;0.00;100.00;102162.34;4136834;28;20030;-70
2024/01/13 07:10:50;;;;;;;38.13;17.13;;;1.00;99.90;;;0.04;100.00;102170.84;4136932;28;20033;-69
2024/01/13 07:12:51;;;;;;;37.45;16.88;;;1.00;99.90;;;0.06;100.00;102161.28;4135366;28;20117;-69
2024/01/13 07:14:52;;;;;;;41.17;19.27;;;1.00;99.90;;;0.11;100.00;102169.72;4135715;28;20026;-69
2024/01/13 07:16:53;;;;;;;40.42;18.20;;;1.00;99.90;;;0.13;100.00;102152.34;4136742;28;20390;-69
2024/01/13 07:18:54;;;;;;;40.70;18.15;;;1.10;99.90;;;0.14;100.00;102148.88;4136614;28;20548;-69
2024/01/13 07:20:56;;;;;;;38.08;17.05;;;1.10;99.90;;;0.14;100.00;102154.06;4119331;28;20034;-69
2024/01/13 07:22:57;;;;;;;39.65;15.77;;;1.10;99.90;;;0.12;100.00;102158.47;4136732;28;20025;-69
2024/01/13 07:24:58;;;;;;;39.90;17.80;;;1.10;99.90;;;0.10;100.00;102149.88;4136630;28;20034;-69
2024/01/13 07:26:58;;;;;;;38.13;17.10;;;1.10;99.90;;;0.07;100.00;102152.56;4135619;28;20505;-69
2024/01/13 07:28:59;;;;;;;33.30;16.85;;;1.00;99.90;;;-0.03;100.00;102136.50;4151482;28;20084;-69
2024/01/13 07:31:00;;;;;;;38.70;17.52;;;1.00;99.90;;;0.00;100.00;102144.19;4136677;28;20038;-70
2024/01/13 07:33:01;;;;;;;40.35;17.05;;;1.00;99.90;;;-0.05;100.00;102148.66;4136381;28;20030;-70
2024/01/13 07:35:02;;;;;;;36.85;17.17;;;1.00;99.90;;;-0.07;100.00;102151.34;4135481;28;20037;-69
2024/01/13 07:37:03;;;;;;;38.63;18.10;;;1.00;99.90;;;-0.04;100.00;102153.81;4136463;28;20508;-69
2024/01/13 07:39:09;;;;;;;37.92;17.60;;;0.90;99.90;;;-0.02;100.00;102148.56;4136491;28;20023;-69
2024/01/13 07:41:10;;;;;;;42.30;18.67;;;0.90;99.90;;;0.05;100.00;102149.19;4136591;28;20425;-70
2024/01/13 07:43:11;;;;;;;37.90;18.48;;;1.00;99.90;;;-0.06;100.00;102134.03;4136446;28;20022;-70
2024/01/13 07:45:12;;;;;;;46.25;18.73;;;1.00;99.90;;;0.00;100.00;102144.19;4135007;28;20038;-70
2024/01/13 07:47:13;;;;;;;41.30;18.48;;;1.00;99.90;;;0.06;100.00;102148.31;4136260;28;20030;-69
2024/01/13 07:49:14;;;;;;;43.67;17.30;;;1.00;99.90;;;-0.02;100.00;102140.78;4136195;28;20037;-70
2024/01/13 07:51:15;;;;;;;42.17;17.85;;;1.00;99.90;;;0.00;100.00;102151.97;4135036;28;20532;-69
2024/01/13 07:53:16;;;;;;;45.88;17.50;;;1.00;99.90;;;0.08;100.00;102142.16;4136108;28;20406;-70
2024/01/13 07:55:16;;;;;;;38.88;18.55;;;1.00;99.90;;;0.07;100.00;102142.19;4136365;28;20406;-70
2024/01/13 07:57:17;;;;;;;47.15;19.38;;;1.00;99.90;;;0.08;100.00;102139.56;4136374;28;20034;-69
2024/01/13 07:59:18;;;;;;;45.75;19.42;;;1.00;99.90;;;0.05;100.00;102141.41;4136276;28;20033;-70
2024/01/13 08:01:19;;;;;;;41.72;19.02;;;1.00;99.90;;;0.03;100.00;102136.25;4136209;28;20022;-70
2024/01/13 08:03:20;;;;;;;42.03;18.02;;;1.00;99.90;;;0.05;100.00;102133.63;4136135;28;20026;-69
2024/01/13 08:05:21;;;;;;;44.65;18.85;;;1.00;99.90;;;0.07;100.00;102137.00;4135116;28;20029;-70
2024/01/13 08:07:25;;;;;;;43.83;19.45;;;1.00;99.90;;;0.03;100.00;102128.47;4136308;28;20522;-69
2024/01/13 08:09:25;;;;;;;45.45;18.90;;;1.00;99.90;;;0.10;100.00;102142.09;4118858;28;20106;-69
2024/01/13 08:11:26;;;;;;;43.95;19.23;;;1.00;99.90;;;0.12;100.00;102141.13;4136332;28;20023;-70
2024/01/13 08:13:27;;;;;;;47.17;20.00;;;1.10;99.90;;;0.15;100.00;102135.00;4134827;28;20026;-69
2024/01/13 08:15:28;;;;;;;47.80;20.00;;;1.10;99.90;;;0.16;100.00;102140.13;4134807;28;20069;-69